PWSweather.com
Personal Weather Stations
Station Observations
VPOKROGLO
Kal Nad Kanalom, PrimorskaSI

Kal Nad KanalomPrimorskaSI

Lat: 46.072, Lon: 13.734

Elevation: 2526

Station Type: WS-2355

http://www.okroglovreme.com

High Low Average
Temperature 68.7°F20.4°F 54.9°F12.7°F 59.1°F15.1°F
Dew Point 60.1°F15.6°F 50.5°F10.3°F 54.0°F12.2°F
Winds 5.1 mph N8.2 mph N Calm Calm 2.1 mph 3.4 mph
Wind Gusts 14.3 mph23.0 mph -- 5.8 mph9.3 mph
Humidity 88% 73% 83%
Pressure 29.88 in1011.90 in 29.84 in1010.50 in -
Precipitation 0.00 in0.00 in - -
Hour Temp Dew Point Humidity Winds Wind Gusts Pressure Precip Precip Rate Daily Precip Total
12:00 AM 55.9°F13.3°C 50.5°F10.3°C 82% 3.1 mph W5.0 kmh W 9.2 mph14.8 kmh 29.87 in1011.5 mb 0.00 in0.0 mm 0.00 in/hr0.0 mm/hr 0.00 in0.0 mm
12:15 AM 55.9°F13.3°C 50.5°F10.3°C 82% 3.4 mph WSW5.5 kmh WSW 9.2 mph14.8 kmh 29.87 in1011.5 mb 0.00 in0.0 mm 0.00 in/hr0.0 mm/hr 0.00 in0.0 mm
12:30 AM 55.9°F13.3°C 50.5°F10.3°C 82% 3.0 mph W4.8 kmh W 12.3 mph19.8 kmh 29.87 in1011.5 mb 0.00 in0.0 mm 0.00 in/hr0.0 mm/hr 0.00 in0.0 mm
12:45 AM 55.9°F13.3°C 50.9°F10.5°C 83% 3.3 mph W5.3 kmh W 7.8 mph12.6 kmh 29.87 in1011.5 mb 0.00 in0.0 mm 0.00 in/hr0.0 mm/hr 0.00 in0.0 mm
01:00 AM 55.9°F13.3°C 50.9°F10.5°C 83% 2.9 mph WNW4.7 kmh WNW 8.1 mph13.0 kmh 29.88 in1011.9 mb 0.00 in0.0 mm 0.00 in/hr0.0 mm/hr 0.00 in0.0 mm
01:15 AM 55.9°F13.3°C 50.9°F10.5°C 83% 2.7 mph W4.3 kmh W 5.8 mph9.3 kmh 29.87 in1011.5 mb 0.00 in0.0 mm 0.00 in/hr0.0 mm/hr 0.00 in0.0 mm
01:30 AM 55.9°F13.3°C 50.9°F10.5°C 83% 3.4 mph W5.5 kmh W 7.6 mph12.2 kmh 29.87 in1011.5 mb 0.00 in0.0 mm 0.00 in/hr0.0 mm/hr 0.00 in0.0 mm
01:45 AM 55.9°F13.3°C 51.2°F10.7°C 84% 2.6 mph W4.2 kmh W 7.2 mph11.6 kmh 29.87 in1011.5 mb 0.00 in0.0 mm 0.00 in/hr0.0 mm/hr 0.00 in0.0 mm
02:00 AM 55.9°F13.3°C 51.2°F10.7°C 84% 3.0 mph NW4.8 kmh NW 10.1 mph16.3 kmh 29.87 in1011.5 mb 0.00 in0.0 mm 0.00 in/hr0.0 mm/hr 0.00 in0.0 mm
02:15 AM 55.9°F13.3°C 51.2°F10.7°C 84% 3.3 mph NW5.3 kmh NW 11.4 mph18.3 kmh 29.86 in1011.2 mb 0.00 in0.0 mm 0.00 in/hr0.0 mm/hr 0.00 in0.0 mm
02:30 AM 55.9°F13.3°C 51.2°F10.7°C 84% 3.6 mph WSW5.8 kmh WSW 8.3 mph13.4 kmh 29.86 in1011.2 mb 0.00 in0.0 mm 0.00 in/hr0.0 mm/hr 0.00 in0.0 mm
02:45 AM 55.9°F13.3°C 51.5°F10.8°C 85% 3.7 mph WNW6.0 kmh WNW 10.1 mph16.3 kmh 29.86 in1011.2 mb 0.00 in0.0 mm 0.00 in/hr0.0 mm/hr 0.00 in0.0 mm
03:00 AM 55.8°F13.2°C 51.3°F10.7°C 85% 3.2 mph W5.1 kmh W 9.8 mph15.8 kmh 29.86 in1011.2 mb 0.00 in0.0 mm 0.00 in/hr0.0 mm/hr 0.00 in0.0 mm
03:15 AM 55.8°F13.2°C 51.3°F10.7°C 85% 2.8 mph SW4.5 kmh SW 8.9 mph14.3 kmh 29.86 in1011.2 mb 0.00 in0.0 mm 0.00 in/hr0.0 mm/hr 0.00 in0.0 mm
03:30 AM 55.9°F13.3°C 51.5°F10.8°C 85% 3.2 mph WSW5.1 kmh WSW 8.5 mph13.7 kmh 29.86 in1011.2 mb 0.00 in0.0 mm 0.00 in/hr0.0 mm/hr 0.00 in0.0 mm
03:45 AM 55.9°F13.3°C 51.5°F10.8°C 85% 3.0 mph W4.8 kmh W 8.3 mph13.4 kmh 29.85 in1010.8 mb 0.00 in0.0 mm 0.00 in/hr0.0 mm/hr 0.00 in0.0 mm
04:00 AM 55.9°F13.3°C 51.2°F10.7°C 84% 2.9 mph W4.7 kmh W 9.2 mph14.8 kmh 29.85 in1010.8 mb 0.00 in0.0 mm 0.00 in/hr0.0 mm/hr 0.00 in0.0 mm
04:15 AM 55.9°F13.3°C 51.5°F10.8°C 85% 2.9 mph WSW4.7 kmh WSW 7.6 mph12.2 kmh 29.85 in1010.8 mb 0.00 in0.0 mm 0.00 in/hr0.0 mm/hr 0.00 in0.0 mm
04:30 AM 55.6°F13.1°C 51.1°F10.6°C 85% 3.1 mph WSW5.0 kmh WSW 7.6 mph12.2 kmh 29.85 in1010.8 mb 0.00 in0.0 mm 0.00 in/hr0.0 mm/hr 0.00 in0.0 mm
04:45 AM 55.4°F13.0°C 51.3°F10.7°C 86% 3.8 mph WSW6.1 kmh WSW 11.2 mph18.0 kmh 29.85 in1010.8 mb 0.00 in0.0 mm 0.00 in/hr0.0 mm/hr 0.00 in0.0 mm
05:00 AM 55.2°F12.9°C 51.1°F10.6°C 86% 3.7 mph WSW6.0 kmh WSW 9.6 mph15.4 kmh 29.85 in1010.8 mb 0.00 in0.0 mm 0.00 in/hr0.0 mm/hr 0.00 in0.0 mm
05:15 AM 55.2°F12.9°C 51.1°F10.6°C 86% 3.0 mph NW4.8 kmh NW 8.9 mph14.3 kmh 29.84 in1010.5 mb 0.00 in0.0 mm 0.00 in/hr0.0 mm/hr 0.00 in0.0 mm
05:30 AM 55.0°F12.8°C 50.9°F10.5°C 86% 3.7 mph WSW6.0 kmh WSW 9.4 mph15.1 kmh 29.84 in1010.5 mb 0.00 in0.0 mm 0.00 in/hr0.0 mm/hr 0.00 in0.0 mm
05:45 AM 55.0°F12.8°C 51.2°F10.7°C 87% 2.4 mph WNW3.9 kmh WNW 5.6 mph9.0 kmh 29.84 in1010.5 mb 0.00 in0.0 mm 0.00 in/hr0.0 mm/hr 0.00 in0.0 mm
06:00 AM 55.0°F12.8°C 51.2°F10.7°C 87% 2.9 mph W4.7 kmh W 6.9 mph11.1 kmh 29.85 in1010.8 mb 0.00 in0.0 mm 0.00 in/hr0.0 mm/hr 0.00 in0.0 mm
06:15 AM 54.9°F12.7°C 51.1°F10.6°C 87% 3.2 mph WSW5.1 kmh WSW 9.2 mph14.8 kmh 29.85 in1010.8 mb 0.00 in0.0 mm 0.00 in/hr0.0 mm/hr 0.00 in0.0 mm
06:30 AM 55.0°F12.8°C 51.2°F10.7°C 87% 3.2 mph W5.1 kmh W 11.0 mph17.7 kmh 29.85 in1010.8 mb 0.00 in0.0 mm 0.00 in/hr0.0 mm/hr 0.00 in0.0 mm
06:45 AM 55.2°F12.9°C 51.7°F10.9°C 88% 3.2 mph WSW5.1 kmh WSW 12.1 mph19.5 kmh 29.86 in1011.2 mb 0.00 in0.0 mm 0.00 in/hr0.0 mm/hr 0.00 in0.0 mm
07:00 AM 55.6°F13.1°C 51.8°F11.0°C 87% 3.2 mph W5.1 kmh W 6.7 mph10.8 kmh 29.85 in1010.8 mb 0.00 in0.0 mm 0.00 in/hr0.0 mm/hr 0.00 in0.0 mm
07:15 AM 55.9°F13.3°C 52.1°F11.2°C 87% 3.3 mph W5.3 kmh W 10.1 mph16.3 kmh 29.85 in1010.8 mb 0.00 in0.0 mm 0.00 in/hr0.0 mm/hr 0.00 in0.0 mm
07:30 AM 56.5°F13.6°C 52.3°F11.3°C 86% 3.2 mph W5.1 kmh W 10.7 mph17.2 kmh 29.86 in1011.2 mb 0.00 in0.0 mm 0.00 in/hr0.0 mm/hr 0.00 in0.0 mm
07:45 AM 56.8°F13.8°C 52.7°F11.5°C 86% 3.4 mph W5.5 kmh W 14.3 mph23.0 kmh 29.86 in1011.2 mb 0.00 in0.0 mm 0.00 in/hr0.0 mm/hr 0.00 in0.0 mm
08:00 AM 57.2°F14.0°C 53.0°F11.7°C 86% 3.3 mph WNW5.3 kmh WNW 9.6 mph15.4 kmh 29.86 in1011.2 mb 0.00 in0.0 mm 0.00 in/hr0.0 mm/hr 0.00 in0.0 mm
08:15 AM 57.4°F14.1°C 52.9°F11.6°C 85% 2.8 mph WSW4.5 kmh WSW 8.3 mph13.4 kmh 29.86 in1011.2 mb 0.00 in0.0 mm 0.00 in/hr0.0 mm/hr 0.00 in0.0 mm
08:30 AM 57.6°F14.2°C 53.1°F11.7°C 85% 3.4 mph W5.5 kmh W 8.9 mph14.3 kmh 29.86 in1011.2 mb 0.00 in0.0 mm 0.00 in/hr0.0 mm/hr 0.00 in0.0 mm
08:45 AM 57.7°F14.3°C 53.3°F11.8°C 85% 3.6 mph W5.8 kmh W 9.8 mph15.8 kmh 29.86 in1011.2 mb 0.00 in0.0 mm 0.00 in/hr0.0 mm/hr 0.00 in0.0 mm
09:00 AM 57.9°F14.4°C 53.4°F11.9°C 85% 3.2 mph W5.1 kmh W 10.1 mph16.3 kmh 29.86 in1011.2 mb 0.00 in0.0 mm 0.00 in/hr0.0 mm/hr 0.00 in0.0 mm
09:15 AM 58.3°F14.6°C 53.5°F11.9°C 84% 3.1 mph WSW5.0 kmh WSW 9.6 mph15.4 kmh 29.87 in1011.5 mb 0.00 in0.0 mm 0.00 in/hr0.0 mm/hr 0.00 in0.0 mm
09:30 AM 59.0°F15.0°C 54.2°F12.3°C 84% 3.1 mph WSW5.0 kmh WSW 6.9 mph11.1 kmh 29.86 in1011.2 mb 0.00 in0.0 mm 0.00 in/hr0.0 mm/hr 0.00 in0.0 mm
09:45 AM 59.5°F15.3°C 54.4°F12.4°C 83% 3.5 mph W5.6 kmh W 10.7 mph17.2 kmh 29.86 in1011.2 mb 0.00 in0.0 mm 0.00 in/hr0.0 mm/hr 0.00 in0.0 mm
10:00 AM 59.5°F15.3°C 54.4°F12.4°C 83% 3.5 mph W5.6 kmh W 9.2 mph14.8 kmh 29.86 in1011.2 mb 0.00 in0.0 mm 0.00 in/hr0.0 mm/hr 0.00 in0.0 mm
10:15 AM 59.7°F15.4°C 54.2°F12.3°C 82% 2.9 mph WSW4.7 kmh WSW 10.1 mph16.3 kmh 29.86 in1011.2 mb 0.00 in0.0 mm 0.00 in/hr0.0 mm/hr 0.00 in0.0 mm
10:30 AM 60.1°F15.6°C 54.9°F12.7°C 83% 3.1 mph W5.0 kmh W 6.5 mph10.5 kmh 29.86 in1011.2 mb 0.00 in0.0 mm 0.00 in/hr0.0 mm/hr 0.00 in0.0 mm
10:45 AM 61.0°F16.1°C 55.4°F13.0°C 82% 2.3 mph WNW3.7 kmh WNW 5.4 mph8.7 kmh 29.86 in1011.2 mb 0.00 in0.0 mm 0.00 in/hr0.0 mm/hr 0.00 in0.0 mm
11:00 AM 60.6°F15.9°C 54.8°F12.7°C 81% 2.4 mph NNW3.9 kmh NNW 9.6 mph15.4 kmh 29.87 in1011.5 mb 0.00 in0.0 mm 0.00 in/hr0.0 mm/hr 0.00 in0.0 mm
11:15 AM 60.8°F16.0°C 55.3°F12.9°C 82% 2.1 mph WNW3.4 kmh WNW 5.4 mph8.7 kmh 29.87 in1011.5 mb 0.00 in0.0 mm 0.00 in/hr0.0 mm/hr 0.00 in0.0 mm
05:49 PM 61.5°F16.4°C 55.6°F13.1°C 81% 0.6 mph S1.0 kmh S 1.1 mph1.8 kmh 29.87 in1011.5 mb 0.00 in0.0 mm 0.00 in/hr0.0 mm/hr 0.00 in0.0 mm
06:00 PM 65.1°F18.4°C 58.1°F14.5°C 78% 0.7 mph S1.1 kmh S 3.8 mph6.1 kmh 29.84 in1010.5 mb 0.00 in0.0 mm 0.00 in/hr0.0 mm/hr 0.00 in0.0 mm
06:15 PM 65.1°F18.4°C 58.4°F14.7°C 79% 0.4 mph SSW0.6 kmh SSW 2.9 mph4.7 kmh 29.84 in1010.5 mb 0.00 in0.0 mm 0.00 in/hr0.0 mm/hr 0.00 in0.0 mm
06:30 PM 64.8°F18.2°C 58.1°F14.5°C 79% 0.2 mph WNW0.3 kmh WNW 2.2 mph3.5 kmh 29.84 in1010.5 mb 0.00 in0.0 mm 0.00 in/hr0.0 mm/hr 0.00 in0.0 mm
06:45 PM 63.3°F17.4°C 57.0°F13.9°C 80% Calm Calm -- 29.85 in1010.8 mb 0.00 in0.0 mm 0.00 in/hr0.0 mm/hr 0.00 in0.0 mm
07:00 PM 62.6°F17.0°C 56.7°F13.7°C 81% Calm Calm -- 29.85 in1010.8 mb 0.00 in0.0 mm 0.00 in/hr0.0 mm/hr 0.00 in0.0 mm
07:15 PM 62.1°F16.7°C 56.2°F13.4°C 81% Calm Calm 1.1 mph1.8 kmh 29.85 in1010.8 mb 0.00 in0.0 mm 0.00 in/hr0.0 mm/hr 0.00 in0.0 mm
07:30 PM 61.3°F16.3°C 56.1°F13.4°C 83% Calm Calm -- 29.85 in1010.8 mb 0.00 in0.0 mm 0.00 in/hr0.0 mm/hr 0.00 in0.0 mm
07:45 PM 60.6°F15.9°C 55.4°F13.0°C 83% 0.1 mph WNW0.2 kmh WNW 2.5 mph4.0 kmh 29.86 in1011.2 mb 0.00 in0.0 mm 0.00 in/hr0.0 mm/hr 0.00 in0.0 mm
08:00 PM 59.9°F15.5°C 55.1°F12.8°C 84% 0.1 mph NE0.2 kmh NE 1.6 mph2.6 kmh 29.86 in1011.2 mb 0.00 in0.0 mm 0.00 in/hr0.0 mm/hr 0.00 in0.0 mm
08:15 PM 59.7°F15.4°C 54.9°F12.7°C 84% 0.3 mph NE0.5 kmh NE 2.2 mph3.5 kmh 29.87 in1011.5 mb 0.00 in0.0 mm 0.00 in/hr0.0 mm/hr 0.00 in0.0 mm
08:30 PM 59.5°F15.3°C 55.0°F12.8°C 85% Calm Calm -- 29.87 in1011.5 mb 0.00 in0.0 mm 0.00 in/hr0.0 mm/hr 0.00 in0.0 mm
08:45 PM 59.2°F15.1°C 54.7°F12.6°C 85% 0.2 mph WNW0.3 kmh WNW 2.0 mph3.2 kmh 29.87 in1011.5 mb 0.00 in0.0 mm 0.00 in/hr0.0 mm/hr 0.00 in0.0 mm
09:00 PM 58.8°F14.9°C 54.6°F12.6°C 86% 0.7 mph NW1.1 kmh NW 2.5 mph4.0 kmh 29.87 in1011.5 mb 0.00 in0.0 mm 0.00 in/hr0.0 mm/hr 0.00 in0.0 mm
09:15 PM 58.8°F14.9°C 55.0°F12.8°C 87% 0.8 mph NNW1.3 kmh NNW 3.1 mph5.0 kmh 29.86 in1011.2 mb 0.00 in0.0 mm 0.00 in/hr0.0 mm/hr 0.00 in0.0 mm
09:54 PM 58.8°F14.9°C 55.0°F12.8°C 87% 1.3 mph NNW2.1 kmh NNW 1.3 mph2.1 kmh 29.87 in1011.5 mb 0.00 in0.0 mm 0.00 in/hr0.0 mm/hr 0.00 in0.0 mm
10:00 PM 59.0°F15.0°C 54.8°F12.7°C 86% 0.1 mph NE0.2 kmh NE 1.3 mph2.1 kmh 29.87 in1011.5 mb 0.00 in0.0 mm 0.00 in/hr0.0 mm/hr 0.00 in0.0 mm
10:15 PM 58.8°F14.9°C 54.6°F12.6°C 86% 0.1 mph NE0.2 kmh NE 2.0 mph3.2 kmh 29.87 in1011.5 mb 0.00 in0.0 mm 0.00 in/hr0.0 mm/hr 0.00 in0.0 mm
10:30 PM 58.8°F14.9°C 54.6°F12.6°C 86% Calm Calm 1.6 mph2.6 kmh 29.87 in1011.5 mb 0.00 in0.0 mm 0.00 in/hr0.0 mm/hr 0.00 in0.0 mm
10:45 PM 58.8°F14.9°C 54.6°F12.6°C 86% 0.1 mph NW0.2 kmh NW 1.6 mph2.6 kmh 29.87 in1011.5 mb 0.00 in0.0 mm 0.00 in/hr0.0 mm/hr 0.00 in0.0 mm
11:00 PM 58.6°F14.8°C 54.5°F12.5°C 86% 0.1 mph NE0.2 kmh NE 2.0 mph3.2 kmh 29.87 in1011.5 mb 0.00 in0.0 mm 0.00 in/hr0.0 mm/hr 0.00 in0.0 mm
11:15 PM 58.6°F14.8°C 54.5°F12.5°C 86% Calm Calm 1.3 mph2.1 kmh 29.86 in1011.2 mb 0.00 in0.0 mm 0.00 in/hr0.0 mm/hr 0.00 in0.0 mm
11:30 PM 58.6°F14.8°C 54.5°F12.5°C 86% 0.3 mph NE0.5 kmh NE 2.2 mph3.5 kmh 29.87 in1011.5 mb 0.00 in0.0 mm 0.00 in/hr0.0 mm/hr 0.00 in0.0 mm
11:45 PM 58.6°F14.8°C 54.8°F12.7°C 87% 0.2 mph SE0.3 kmh SE 1.8 mph2.9 kmh 29.87 in1011.5 mb 0.00 in0.0 mm 0.00 in/hr0.0 mm/hr 0.00 in0.0 mm